Time;durP1;ratioP1;P1;durP2;ratioP2;P2;SDS_P1;SDS_P2;PMS_P1;PMS_P2;Temp;Humidity;BMP_temperature;BMP_pressure;BME280_temperature;BME280_humidity;BME280_pressure;Samples;Min_cycle;Max_cycle;Signal;HPM_P1;HPM_P2
2022/02/22 00:01:19;;;;;;;;;;;;;;;21.21;43.69;99772.28;4871077;29;4594;-64
2022/02/22 00:03:46;;;;;;;;;;;;;;;21.22;43.70;99785.25;4870348;29;4102;-64
2022/02/22 00:06:12;;;;;;;;;;;;;;;21.23;43.76;99780.22;4873575;29;4057;-64
2022/02/22 00:08:38;;;;;;;;;;;;;;;21.23;43.71;99798.22;4870173;29;4137;-65
2022/02/22 00:11:05;;;;;;;;;;;;;;;21.23;43.59;99797.50;4872014;29;4280;-64
2022/02/22 00:13:31;;;;;;;;;;;;;;;21.23;43.67;99798.22;4870865;29;5305;-64
2022/02/22 00:15:59;;;;;;;;;;;;;;;21.23;43.75;99803.97;4870763;29;5381;-64
2022/02/22 00:18:25;;;;;;;;;;;;;;;21.22;43.82;99813.31;4868972;29;4402;-64
2022/02/22 00:20:51;;;;;;;;;;;;;;;21.22;43.84;99811.16;4870452;29;4282;-64
2022/02/22 00:23:18;;;;;;;;;;;;;;;21.21;43.71;99820.47;4873662;29;4559;-64
2022/02/22 00:25:44;;;;;;;;;;;;;;;21.20;43.76;99828.38;4869941;29;4280;-65
2022/02/22 00:28:10;;;;;;;;;;;;;;;21.20;43.68;99834.13;4870864;29;4264;-64
2022/02/22 00:30:37;;;;;;;;;;;;;;;21.20;43.78;99839.88;4869681;29;4209;-65
2022/02/22 00:33:03;;;;;;;;;;;;;;;21.20;43.90;99842.78;4871331;29;4224;-65
2022/02/22 00:35:29;;;;;;;;;;;;;;;21.21;43.62;99847.13;4872143;29;5295;-64
2022/02/22 00:37:56;;;;;;;;;;;;;;;21.21;43.73;99852.88;4872185;29;4117;-65
2022/02/22 00:40:22;;;;;;;;;;;;;;;21.21;43.75;99861.53;4870235;29;4080;-65
2022/02/22 00:42:49;;;;;;;;;;;;;;;21.20;43.96;99862.94;4870857;29;4120;-65
2022/02/22 00:45:15;;;;;;;;;;;;;;;21.20;43.83;99862.94;4872112;29;4219;-65
2022/02/22 00:47:41;;;;;;;;;;;;;;;21.20;43.82;99868.69;4869026;29;5431;-64
2022/02/22 00:50:08;;;;;;;;;;;;;;;21.19;43.80;99867.22;4870713;29;4105;-65
2022/02/22 00:52:34;;;;;;;;;;;;;;;21.20;43.96;99871.56;4869525;29;4166;-64
2022/02/22 00:55:01;;;;;;;;;;;;;;;21.20;43.87;99882.34;4869809;29;4276;-65
2022/02/22 00:57:27;;;;;;;;;;;;;;;21.20;43.90;99885.22;4869298;29;4244;-65
2022/02/22 00:59:53;;;;;;;;;;;;;;;21.20;43.94;99873.72;4869585;29;4014;-64
2022/02/22 01:02:20;;;;;;;;;;;;;;;21.19;43.92;99881.63;4868361;29;6025;-64
2022/02/22 01:04:46;;;;;;;;;;;;;;;21.19;43.80;99887.38;4871032;29;4293;-65
2022/02/22 01:07:16;;;;;;;;;;;;;;;21.20;43.91;99885.94;4871967;29;5444;-65
2022/02/22 01:09:43;;;;;;;;;;;;;;;21.18;43.82;99885.91;4870490;29;4056;-65
2022/02/22 01:12:09;;;;;;;;;;;;;;;21.19;43.88;99901.00;4867380;29;4295;-65
2022/02/22 01:14:36;;;;;;;;;;;;;;;21.18;44.03;99903.16;4868152;29;5302;-65
2022/02/22 01:17:02;;;;;;;;;;;;;;;21.18;43.92;99903.16;4869618;29;4298;-64
2022/02/22 01:19:29;;;;;;;;;;;;;;;21.17;44.09;99907.47;4868417;29;4198;-64
2022/02/22 01:21:55;;;;;;;;;;;;;;;21.17;43.93;99903.88;4869623;29;4251;-65
2022/02/22 01:24:21;;;;;;;;;;;;;;;21.19;44.07;99918.28;4870147;29;5290;-65
2022/02/22 01:26:48;;;;;;;;;;;;;;;21.18;43.93;99923.31;4870737;29;4319;-64
2022/02/22 01:29:14;;;;;;;;;;;;;;;21.19;44.12;99921.94;4870356;29;4256;-65
2022/02/22 01:31:41;;;;;;;;;;;;;;;21.20;44.19;99931.28;4866896;29;5189;-65
2022/02/22 01:34:07;;;;;;;;;;;;;;;21.19;44.00;99927.69;4869034;29;5423;-64
2022/02/22 01:36:33;;;;;;;;;;;;;;;21.19;43.96;99939.19;4870522;29;5295;-65
2022/02/22 01:39:00;;;;;;;;;;;;;;;21.18;44.06;99943.47;4873664;29;4203;-65
2022/02/22 01:41:29;;;;;;;;;;;;;;;21.16;44.13;99940.53;4874908;29;4740;-65
2022/02/22 01:43:55;;;;;;;;;;;;;;;21.17;44.10;99947.78;4871554;29;4346;-64
2022/02/22 01:46:22;;;;;;;;;;;;;;;21.16;44.00;99943.41;4869952;29;4065;-65
2022/02/22 01:48:48;;;;;;;;;;;;;;;21.17;44.00;99942.00;4872836;29;4406;-64
2022/02/22 01:51:14;;;;;;;;;;;;;;;21.16;43.99;99954.94;4873798;29;4233;-64
2022/02/22 01:53:41;;;;;;;;;;;;;;;21.17;44.02;99962.16;4873612;29;5271;-65
2022/02/22 01:56:09;;;;;;;;;;;;;;;21.17;44.08;99955.69;4873897;29;4114;-64
2022/02/22 01:58:35;;;;;;;;;;;;;;;21.16;44.14;99963.56;4871066;29;5316;-65
2022/02/22 02:01:01;;;;;;;;;;;;;;;21.16;43.99;99968.59;4873578;29;4202;-65
2022/02/22 02:03:28;;;;;;;;;;;;;;;21.17;44.18;99973.69;4874321;29;4201;-64
2022/02/22 02:05:55;;;;;;;;;;;;;;;21.16;43.99;99989.47;4872907;29;4180;-65
2022/02/22 02:08:21;;;;;;;;;;;;;;;21.16;44.10;99985.88;4873684;29;5546;-64
2022/02/22 02:10:48;;;;;;;;;;;;;;;21.15;44.21;99988.00;4873848;29;4100;-64
2022/02/22 02:13:14;;;;;;;;;;;;;;;21.15;43.99;100002.41;4876552;29;4329;-64
2022/02/22 02:15:41;;;;;;;;;;;;;;;21.15;43.94;100011.03;4871268;29;5409;-64
2022/02/22 02:18:07;;;;;;;;;;;;;;;21.16;43.99;100003.88;4870516;29;4234;-65
2022/02/22 02:20:33;;;;;;;;;;;;;;;21.16;43.89;100012.50;4871199;29;4527;-64
2022/02/22 02:23:00;;;;;;;;;;;;;;;21.16;43.99;100015.38;4874300;29;4262;-64
2022/02/22 02:25:26;;;;;;;;;;;;;;;21.16;44.08;100018.25;4872571;29;4161;-65
2022/02/22 02:27:53;;;;;;;;;;;;;;;21.15;44.00;100016.81;4870027;29;4193;-65
2022/02/22 02:30:19;;;;;;;;;;;;;;;21.16;44.09;100024.00;4868568;29;4247;-65
2022/02/22 02:32:45;;;;;;;;;;;;;;;21.14;44.16;100023.94;4872174;29;4300;-64
2022/02/22 02:35:12;;;;;;;;;;;;;;;21.14;44.20;100026.84;4867515;29;4022;-64
2022/02/22 02:37:38;;;;;;;;;;;;;;;21.14;44.29;100029.72;4871826;29;4046;-64
2022/02/22 02:40:25;;;;;;;;;;;;;;;21.15;44.18;100042.72;4873631;29;4207;-64
2022/02/22 02:42:51;;;;;;;;;;;;;;;21.14;44.13;100041.22;4872605;29;5367;-65
2022/02/22 02:45:17;;;;;;;;;;;;;;;21.15;44.07;100039.84;4871552;29;4237;-66
2022/02/22 02:47:44;;;;;;;;;;;;;;;21.16;44.15;100047.03;4872227;29;4653;-64
2022/02/22 02:50:11;;;;;;;;;;;;;;;21.15;44.15;100059.97;4871190;29;4291;-65
2022/02/22 02:52:37;;;;;;;;;;;;;;;21.15;44.04;100062.13;4872316;29;5360;-65
2022/02/22 02:55:04;;;;;;;;;;;;;;;21.15;44.08;100057.09;4872113;29;5299;-65
2022/02/22 02:57:30;;;;;;;;;;;;;;;21.14;44.18;100055.63;4873376;29;4594;-65
2022/02/22 02:59:57;;;;;;;;;;;;;;;21.12;44.21;100064.94;4871459;29;4205;-65
2022/02/22 03:02:23;;;;;;;;;;;;;;;21.13;44.26;100072.16;4869225;29;4277;-64
2022/02/22 03:04:49;;;;;;;;;;;;;;;21.14;44.28;100072.91;4871789;29;5447;-64
2022/02/22 03:07:16;;;;;;;;;;;;;;;21.13;44.12;100075.03;4871198;29;4128;-65
2022/02/22 03:09:42;;;;;;;;;;;;;;;21.15;44.09;100090.91;4873635;29;4331;-64
2022/02/22 03:12:08;;;;;;;;;;;;;;;21.13;44.09;100083.69;4872867;29;5311;-65
2022/02/22 03:14:35;;;;;;;;;;;;;;;21.15;44.21;100096.69;4873040;29;5297;-65
2022/02/22 03:17:01;;;;;;;;;;;;;;;21.13;44.24;100103.09;4872676;29;6655;-64
2022/02/22 03:19:27;;;;;;;;;;;;;;;21.12;44.35;100098.75;4870912;29;5520;-64
2022/02/22 03:21:54;;;;;;;;;;;;;;;21.12;44.14;100113.88;4872325;29;5605;-64
2022/02/22 03:24:20;;;;;;;;;;;;;;;21.12;44.18;100116.03;4872241;29;4247;-65
2022/02/22 03:26:47;;;;;;;;;;;;;;;21.11;44.14;100123.19;4871500;29;4188;-64
2022/02/22 03:29:13;;;;;;;;;;;;;;;21.10;44.35;100118.84;4872984;29;4674;-65
2022/02/22 03:31:40;;;;;;;;;;;;;;;21.10;44.10;100131.09;4871659;29;4389;-64
2022/02/22 03:34:06;;;;;;;;;;;;;;;21.12;44.11;100121.78;4872231;29;4959;-64
2022/02/22 03:36:35;;;;;;;;;;;;;;;21.11;44.15;100135.44;4870787;29;4205;-65
2022/02/22 03:39:01;;;;;;;;;;;;;;;21.11;44.12;100143.34;4873773;29;5491;-64
2022/02/22 03:41:28;;;;;;;;;;;;;;;21.11;44.08;100138.31;4870798;29;5366;-65
2022/02/22 03:43:54;;;;;;;;;;;;;;;21.12;44.08;100156.34;4870927;29;4254;-65
2022/02/22 03:46:20;;;;;;;;;;;;;;;21.12;44.20;100162.09;4870984;29;4418;-65
2022/02/22 03:48:47;;;;;;;;;;;;;;;21.12;44.15;100168.59;4871224;29;4286;-65
2022/02/22 03:51:13;;;;;;;;;;;;;;;21.11;44.32;100169.97;4870492;29;5646;-65
2022/02/22 03:53:40;;;;;;;;;;;;;;;21.11;44.18;100172.84;4870252;29;4332;-64
2022/02/22 03:56:06;;;;;;;;;;;;;;;21.12;44.22;100179.38;4873148;29;4613;-65
2022/02/22 03:58:32;;;;;;;;;;;;;;;21.11;44.14;100186.50;4873627;29;5474;-65
2022/02/22 04:00:59;;;;;;;;;;;;;;;21.11;44.16;100195.16;4869577;29;4604;-64
2022/02/22 04:03:25;;;;;;;;;;;;;;;21.10;44.27;100200.19;4872014;29;4306;-64
2022/02/22 04:05:52;;;;;;;;;;;;;;;21.11;44.11;100195.16;4871591;29;5261;-65
2022/02/22 04:08:18;;;;;;;;;;;;;;;21.10;44.06;100205.22;4873039;29;5721;-65
2022/02/22 04:10:44;;;;;;;;;;;;;;;21.12;44.17;100225.44;4870509;29;4247;-65
2022/02/22 04:13:11;;;;;;;;;;;;;;;21.10;44.30;100228.97;4872421;29;4285;-65
2022/02/22 04:15:38;;;;;;;;;;;;;;;21.10;43.97;100240.47;4872468;29;4232;-65
2022/02/22 04:18:04;;;;;;;;;;;;;;;21.10;44.08;100225.34;4863626;29;4362;-65
2022/02/22 04:20:30;;;;;;;;;;;;;;;21.10;44.08;100239.75;4871734;29;4233;-65
2022/02/22 04:22:57;;;;;;;;;;;;;;;21.11;44.10;100252.72;4872165;29;5423;-64
2022/02/22 04:25:23;;;;;;;;;;;;;;;21.11;43.98;100241.22;4871477;29;4687;-65
2022/02/22 04:27:50;;;;;;;;;;;;;;;21.10;44.17;100257.03;4871241;29;4623;-65
2022/02/22 04:30:16;;;;;;;;;;;;;;;21.10;44.02;100265.66;4869226;29;4237;-64
2022/02/22 04:32:43;;;;;;;;;;;;;;;21.10;44.02;100272.16;4869761;29;4126;-64
2022/02/22 04:35:10;;;;;;;;;;;;;;;21.08;44.01;100271.34;4869972;29;4527;-64
2022/02/22 04:37:36;;;;;;;;;;;;;;;21.06;43.86;100285.66;4866917;29;4137;-64
2022/02/22 04:40:03;;;;;;;;;;;;;;;21.07;43.63;100287.13;4873387;29;4022;-64
2022/02/22 04:42:29;;;;;;;;;;;;;;;21.08;43.60;100294.38;4872895;29;4232;-64
2022/02/22 04:44:56;;;;;;;;;;;;;;;21.08;43.76;100294.38;4871105;29;4266;-64
2022/02/22 04:47:22;;;;;;;;;;;;;;;21.09;43.63;100298.72;4869752;29;4263;-64
2022/02/22 04:49:48;;;;;;;;;;;;;;;21.09;43.77;100308.09;4871198;29;4248;-64
2022/02/22 04:52:15;;;;;;;;;;;;;;;21.09;43.86;100310.22;4872161;29;4608;-65
2022/02/22 04:54:41;;;;;;;;;;;;;;;21.09;44.06;100313.84;4872168;29;4320;-64
2022/02/22 04:57:07;;;;;;;;;;;;;;;21.09;43.86;100307.34;4871330;29;5218;-64
2022/02/22 04:59:34;;;;;;;;;;;;;;;21.08;43.99;100317.41;4871308;29;5512;-64
2022/02/22 05:02:00;;;;;;;;;;;;;;;21.07;44.24;100316.69;4869713;29;5238;-64
2022/02/22 05:04:27;;;;;;;;;;;;;;;21.07;44.17;100336.06;4870500;29;4257;-64
2022/02/22 05:06:53;;;;;;;;;;;;;;;21.07;44.15;100333.19;4870568;29;4408;-64
2022/02/22 05:09:21;;;;;;;;;;;;;;;21.08;44.25;100337.56;4868883;29;4239;-64
2022/02/22 05:11:47;;;;;;;;;;;;;;;21.08;44.15;100351.94;4870504;29;4649;-64
2022/02/22 05:14:13;;;;;;;;;;;;;;;21.07;44.08;100362.72;4869266;29;4405;-64
2022/02/22 05:16:40;;;;;;;;;;;;;;;21.08;44.30;100357.72;4869736;29;5278;-64
2022/02/22 05:19:07;;;;;;;;;;;;;;;21.07;44.26;100354.09;4870033;29;4366;-64
2022/02/22 05:21:34;;;;;;;;;;;;;;;21.07;44.09;100361.97;4870631;29;4217;-65
2022/02/22 05:24:02;;;;;;;;;;;;;;;21.05;44.27;100354.03;4870060;29;4494;-64
2022/02/22 05:26:28;;;;;;;;;;;;;;;21.05;44.29;100364.78;4872251;29;4239;-64
2022/02/22 05:28:54;;;;;;;;;;;;;;;21.07;44.30;100373.50;4871577;29;4383;-64
2022/02/22 05:31:20;;;;;;;;;;;;;;;21.06;44.24;100377.78;4868628;29;4261;-64
2022/02/22 05:33:47;;;;;;;;;;;;;;;21.07;44.11;100367.72;4869738;29;4172;-64
2022/02/22 05:36:13;;;;;;;;;;;;;;;21.07;44.23;100368.50;4872294;29;4296;-64
2022/02/22 05:38:40;;;;;;;;;;;;;;;21.09;44.32;100377.19;4871506;29;4043;-64
2022/02/22 05:41:08;;;;;;;;;;;;;;;21.09;44.37;100387.97;4872615;29;4224;-64
2022/02/22 05:43:35;;;;;;;;;;;;;;;21.09;44.56;100382.94;4866676;29;4208;-64
2022/02/22 05:46:01;;;;;;;;;;;;;;;21.08;44.66;100386.50;4870760;29;5354;-64
2022/02/22 05:48:27;;;;;;;;;;;;;;;21.09;44.61;100405.22;4869740;29;5483;-64
2022/02/22 05:50:54;;;;;;;;;;;;;;;21.09;44.64;100416.75;4872248;29;4222;-64
2022/02/22 05:53:20;;;;;;;;;;;;;;;21.07;44.18;100413.78;4869182;29;4214;-67
2022/02/22 05:55:47;;;;;;;;;;;;;;;21.11;44.67;100414.69;4866225;29;4151;-65
2022/02/22 05:58:14;;;;;;;;;;;;;;;21.11;44.65;100411.06;4871749;29;4157;-65
2022/02/22 06:00:41;;;;;;;;;;;;;;;21.12;45.85;100421.94;4869661;29;4606;-66
2022/02/22 06:03:07;;;;;;;;;;;;;;;21.15;45.44;100440.00;4868679;29;4269;-65
2022/02/22 06:05:34;;;;;;;;;;;;;;;21.24;45.66;100443.94;4866215;29;4482;-67
2022/02/22 06:08:01;;;;;;;;;;;;;;;21.22;46.16;100447.47;4869885;29;4217;-67
2022/02/22 06:10:28;;;;;;;;;;;;;;;21.20;46.07;100455.28;4860039;29;4211;-72
2022/02/22 06:12:54;;;;;;;;;;;;;;;21.22;45.65;100461.84;4875746;29;5414;-68
2022/02/22 06:15:22;;;;;;;;;;;;;;;21.21;45.83;100462.50;4865325;29;4228;-70
2022/02/22 06:17:48;;;;;;;;;;;;;;;21.20;45.91;100466.81;4870246;29;4255;-67
2022/02/22 06:20:15;;;;;;;;;;;;;;;21.23;45.67;100456.84;4870210;29;4331;-67
2022/02/22 06:22:41;;;;;;;;;;;;;;;21.22;45.75;100458.97;4867256;29;4117;-67
2022/02/22 06:25:08;;;;;;;;;;;;;;;21.20;45.52;100464.66;4869308;29;4291;-66
2022/02/22 06:27:51;;;;;;;;;;;;;;;21.21;45.57;100468.28;4871382;29;5478;-65
2022/02/22 06:30:17;;;;;;;;;;;;;;;21.20;45.62;100470.41;4872757;29;5401;-66
2022/02/22 06:32:44;;;;;;;;;;;;;;;21.21;45.78;100474.78;4873003;29;4620;-66
2022/02/22 06:35:10;;;;;;;;;;;;;;;21.20;45.96;100476.19;4873878;29;4093;-67
2022/02/22 06:37:36;;;;;;;;;;;;;;;21.22;45.97;100482.00;4870702;29;4253;-66
2022/02/22 06:40:05;;;;;;;;;;;;;;;21.22;46.16;100487.78;4874348;29;4220;-66
2022/02/22 06:42:32;;;;;;;;;;;;;;;21.23;46.17;100489.25;4874446;29;4174;-67
2022/02/22 06:44:58;;;;;;;;;;;;;;;21.24;46.49;100495.75;4873532;29;4047;-68
2022/02/22 06:47:26;;;;;;;;;;;;;;;21.24;46.49;100493.63;4863257;29;4523;-66
2022/02/22 06:49:53;;;;;;;;;;;;;;;21.21;46.32;100502.81;4872305;29;4171;-67
2022/02/22 06:52:20;;;;;;;;;;;;;;;21.19;46.37;100506.38;4872918;29;5544;-67
2022/02/22 06:54:46;;;;;;;;;;;;;;;21.19;46.40;100520.03;4873499;29;5393;-67
2022/02/22 06:57:13;;;;;;;;;;;;;;;21.18;46.21;100519.28;4872691;29;4061;-67
2022/02/22 06:59:39;;;;;;;;;;;;;;;21.18;46.16;100530.06;4873508;29;4491;-67
2022/02/22 07:02:05;;;;;;;;;;;;;;;21.17;46.08;100532.22;4874753;29;4282;-67
2022/02/22 07:04:32;;;;;;;;;;;;;;;21.17;46.14;100526.47;4873727;29;4316;-67
2022/02/22 07:07:01;;;;;;;;;;;;;;;21.15;46.24;100532.16;4873795;29;4349;-67
2022/02/22 07:09:28;;;;;;;;;;;;;;;21.17;45.96;100540.84;4873315;29;4195;-67
2022/02/22 07:11:54;;;;;;;;;;;;;;;21.18;45.85;100535.84;4872585;29;5296;-68
2022/02/22 07:14:22;;;;;;;;;;;;;;;21.19;46.21;100549.56;4874614;29;5268;-66
2022/02/22 07:16:48;;;;;;;;;;;;;;;21.17;46.03;100540.84;4873185;29;4186;-68
2022/02/22 07:19:14;;;;;;;;;;;;;;;21.15;45.96;100555.19;4874586;29;4268;-68
2022/02/22 07:21:41;;;;;;;;;;;;;;;21.18;46.12;100568.25;4874829;29;5790;-69
2022/02/22 07:24:07;;;;;;;;;;;;;;;21.22;47.30;100562.63;4873180;29;4494;-67
2022/02/22 07:26:33;;;;;;;;;;;;;;;21.21;46.68;100564.06;4873036;29;4348;-64
2022/02/22 07:29:00;;;;;;;;;;;;;;;21.40;46.66;100567.63;4864761;29;4405;-66
2022/02/22 07:31:26;;;;;;;;;;;;;;;21.43;46.17;100574.97;4872768;29;4312;-67
2022/02/22 07:33:53;;;;;;;;;;;;;;;21.43;45.77;100574.97;4870448;29;4270;-66
2022/02/22 07:36:19;;;;;;;;;;;;;;;21.41;45.86;100590.00;4870078;29;4288;-67
2022/02/22 07:38:45;;;;;;;;;;;;;;;21.42;45.86;100590.78;4872041;29;4251;-67
2022/02/22 07:41:22;;;;;;;;;;;;;;;21.45;45.44;100595.19;4872084;29;4557;-67
2022/02/22 07:43:50;;;;;;;;;;;;;;;21.44;45.36;100602.34;4872203;29;4423;-66
2022/02/22 07:46:19;;;;;;;;;;;;;;;21.46;45.43;100613.94;4869718;29;5529;-67
2022/02/22 07:48:46;;;;;;;;;;;;;;;21.44;45.25;100616.75;4871947;29;4263;-67
2022/02/22 07:51:16;;;;;;;;;;;;;;;21.41;45.29;100615.22;4870398;29;4242;-67
2022/02/22 07:53:44;;;;;;;;;;;;;;;21.33;45.56;100625.00;4871698;29;5258;-67
2022/02/22 07:56:10;;;;;;;;;;;;;;;21.30;45.03;100617.69;4872062;29;5278;-66
2022/02/22 07:58:38;;;;;;;;;;;;;;;21.46;45.04;100608.19;4861109;29;4484;-68
2022/02/22 08:01:05;;;;;;;;;;;;;;;21.45;44.94;100626.88;4867766;29;5662;-68
2022/02/22 08:03:35;;;;;;;;;;;;;;;21.45;44.86;100627.63;4869027;29;4453;-67
2022/02/22 08:06:01;;;;;;;;;;;;;;;21.45;44.75;100641.28;4871974;29;4229;-69
2022/02/22 08:08:27;;;;;;;;;;;;;;;21.41;43.53;100636.09;4872239;29;4288;-67
2022/02/22 08:10:54;;;;;;;;;;;;;;;21.34;42.88;100652.38;4867186;29;4149;-67
2022/02/22 08:13:20;;;;;;;;;;;;;;;21.42;42.59;100660.63;4865360;29;4212;-63
2022/02/22 08:15:49;;;;;;;;;;;;;;;21.48;42.46;100654.34;4870192;29;4266;-68
2022/02/22 08:18:16;;;;;;;;;;;;;;;21.49;41.18;100667.38;4865807;29;4469;-73
2022/02/22 08:20:43;;;;;;;;;;;;;;;21.48;40.68;100677.41;4871109;29;4024;-74
2022/02/22 08:23:10;;;;;;;;;;;;;;;21.46;40.74;100674.44;4869340;29;4277;-73
2022/02/22 08:25:36;;;;;;;;;;;;;;;21.46;39.95;100683.09;4867954;29;4110;-71
2022/02/22 08:28:07;;;;;;;;;;;;;;;21.37;39.88;100684.16;4868660;29;4001;-68
2022/02/22 08:30:34;;;;;;;;;;;;;;;21.32;39.57;100686.13;4882412;29;4017;-68
2022/02/22 08:33:01;;;;;;;;;;;;;;;21.30;39.33;100689.69;4868470;29;5164;-68
2022/02/22 08:35:27;;;;;;;;;;;;;;;21.34;38.80;100686.22;4868775;29;4230;-66
2022/02/22 08:37:55;;;;;;;;;;;;;;;21.33;38.36;100702.75;4870901;29;4070;-67
2022/02/22 08:40:22;;;;;;;;;;;;;;;21.33;38.52;100711.41;4868743;29;4147;-67
2022/02/22 08:42:49;;;;;;;;;;;;;;;21.23;38.67;100705.22;4856782;29;4211;-71
2022/02/22 08:45:21;;;;;;;;;;;;;;;21.30;39.67;100706.97;4867004;29;4267;-67
2022/02/22 08:47:48;;;;;;;;;;;;;;;21.23;39.23;100713.84;4862906;29;4235;-70
2022/02/22 08:50:14;;;;;;;;;;;;;;;21.24;39.35;100721.09;4865848;29;4098;-69
2022/02/22 08:52:41;;;;;;;;;;;;;;;21.42;38.91;100717.50;4868595;29;4153;-68
2022/02/22 08:55:08;;;;;;;;;;;;;;;21.52;38.48;100727.28;4870740;29;4226;-70
2022/02/22 08:57:34;;;;;;;;;;;;;;;21.53;38.13;100716.50;4869619;29;5583;-68
2022/02/22 09:00:02;;;;;;;;;;;;;;;21.47;37.50;100719.16;4869810;29;4308;-69
2022/02/22 09:02:29;;;;;;;;;;;;;;;21.26;37.76;100726.22;4860497;29;5413;-69
2022/02/22 09:04:56;;;;;;;;;;;;;;;21.19;37.96;100724.47;4861909;29;4337;-72
2022/02/22 09:07:22;;;;;;;;;;;;;;;20.42;36.81;100734.16;4870236;29;4302;-76
2022/02/22 09:09:48;;;;;;;;;;;;;;;19.99;35.65;100724.38;4867652;29;4338;-68
2022/02/22 09:12:15;;;;;;;;;;;;;;;20.35;35.58;100735.31;4879990;29;5336;-66
2022/02/22 09:14:41;;;;;;;;;;;;;;;20.68;35.71;100737.47;4868702;29;4176;-68
2022/02/22 09:17:08;;;;;;;;;;;;;;;20.85;35.44;100745.41;4870010;29;4171;-67
2022/02/22 09:19:34;;;;;;;;;;;;;;;20.98;35.97;100754.56;4865425;29;4234;-66
2022/02/22 09:22:01;;;;;;;;;;;;;;;21.05;36.88;100750.53;4863300;29;4312;-67
2022/02/22 09:24:27;;;;;;;;;;;;;;;21.09;37.27;100750.72;4864709;29;4275;-67
2022/02/22 09:26:54;;;;;;;;;;;;;;;21.11;38.02;100742.88;4865668;29;4221;-71
2022/02/22 09:29:20;;;;;;;;;;;;;;;21.13;38.61;100745.13;4866496;29;4249;-72
2022/02/22 09:31:49;;;;;;;;;;;;;;;21.13;39.14;100745.13;4870048;29;4258;-72
2022/02/22 09:34:16;;;;;;;;;;;;;;;21.13;39.92;100768.91;4860272;29;4374;-78
2022/02/22 09:36:42;;;;;;;;;;;;;;;20.62;38.24;100763.13;4863058;29;4246;-67
2022/02/22 09:39:09;;;;;;;;;;;;;;;20.71;38.34;100764.97;4864774;29;4204;-69
2022/02/22 09:41:36;;;;;;;;;;;;;;;21.03;39.90;100767.75;4868488;29;4135;-69
2022/02/22 09:44:03;;;;;;;;;;;;;;;21.28;40.11;100761.59;4863985;29;4103;-71
2022/02/22 09:46:30;;;;;;;;;;;;;;;21.42;40.66;100764.34;4865393;29;5328;-69
2022/02/22 09:48:56;;;;;;;;;;;;;;;21.53;40.75;100779.88;4869992;29;4232;-68
2022/02/22 09:51:23;;;;;;;;;;;;;;;21.58;40.67;100777.91;4867209;29;4059;-72
2022/02/22 09:53:49;;;;;;;;;;;;;;;21.61;40.82;100785.97;4866490;29;4352;-69
2022/02/22 09:56:18;;;;;;;;;;;;;;;21.66;40.91;100781.84;4869428;29;4256;-72
2022/02/22 09:58:45;;;;;;;;;;;;;;;21.73;41.07;100785.72;4869489;29;4417;-70
2022/02/22 10:01:12;;;;;;;;;;;;;;;21.79;41.04;100782.34;4872630;29;4335;-68
2022/02/22 10:03:38;;;;;;;;;;;;;;;21.98;41.42;100786.69;4872163;29;4239;-66
2022/02/22 10:06:05;;;;;;;;;;;;;;;22.23;41.03;100789.09;4872831;29;4249;-61
2022/02/22 10:08:38;;;;;;;;;;;;;;;22.38;40.67;100787.50;4873036;29;4217;-61
2022/02/22 10:11:05;;;;;;;;;;;;;;;22.45;40.43;100797.09;4873787;29;5358;-61
2022/02/22 10:13:32;;;;;;;;;;;;;;;22.50;40.42;100792.97;4871087;29;4377;-62
2022/02/22 10:15:58;;;;;;;;;;;;;;;22.52;40.71;100796.69;4874009;29;4414;-63
2022/02/22 10:18:27;;;;;;;;;;;;;;;22.57;40.75;100792.53;4873009;29;4331;-62
2022/02/22 10:20:53;;;;;;;;;;;;;;;22.62;40.91;100798.44;4874481;29;4246;-65
2022/02/22 10:23:27;;;;;;;;;;;;;;;22.73;40.68;100797.41;4869793;29;4271;-62
2022/02/22 10:25:57;;;;;;;;;;;;;;;22.67;40.58;100812.34;4873044;29;4223;-65
2022/02/22 10:28:23;;;;;;;;;;;;;;;22.71;40.52;100818.28;4872713;29;4218;-61
2022/02/22 10:30:53;;;;;;;;;;;;;;;22.74;40.91;100814.03;4874006;29;4411;-63
2022/02/22 10:33:26;;;;;;;;;;;;;;;22.75;40.60;100811.91;4869817;29;4192;-66
2022/02/22 10:35:53;;;;;;;;;;;;;;;22.70;40.84;100821.81;4874640;29;5083;-66
2022/02/22 10:38:23;;;;;;;;;;;;;;;22.68;41.23;100810.94;4872990;29;4299;-65
2022/02/22 10:41:01;;;;;;;;;;;;;;;22.68;41.33;100818.88;4876059;29;4507;-66
2022/02/22 10:43:29;;;;;;;;;;;;;;;22.69;41.19;100820.34;4872235;29;4283;-63
2022/02/22 10:45:56;;;;;;;;;;;;;;;22.83;41.18;100817.97;4871431;29;4296;-63
2022/02/22 10:48:30;;;;;;;;;;;;;;;22.94;40.83;100827.72;4873499;29;4213;-63
2022/02/22 10:50:57;;;;;;;;;;;;;;;23.03;41.20;100835.31;4874994;29;4124;-63
2022/02/22 10:53:29;;;;;;;;;;;;;;;23.07;40.92;100834.72;4872105;29;5301;-62
2022/02/22 10:55:56;;;;;;;;;;;;;;;23.10;41.14;100824.69;4877030;29;5616;-61
2022/02/22 10:58:23;;;;;;;;;;;;;;;23.06;41.18;100841.88;4876196;29;5425;-63
2022/02/22 11:00:49;;;;;;;;;;;;;;;22.99;40.95;100835.88;4872194;29;5356;-68
2022/02/22 11:03:16;;;;;;;;;;;;;;;22.83;41.15;100841.06;4869924;29;4338;-61
2022/02/22 11:05:43;;;;;;;;;;;;;;;22.92;40.88;100854.38;4885451;29;4189;-64
2022/02/22 11:08:10;;;;;;;;;;;;;;;22.83;40.96;100861.28;4891815;29;4224;-61
2022/02/22 11:10:37;;;;;;;;;;;;;;;22.78;41.22;100836.56;4873833;29;4171;-62
2022/02/22 11:13:03;;;;;;;;;;;;;;;22.77;41.35;100858.19;4882018;29;4223;-61
2022/02/22 11:15:35;;;;;;;;;;;;;;;22.83;41.23;100858.38;4875029;29;4204;-62
2022/02/22 11:18:06;;;;;;;;;;;;;;;22.85;41.32;100843.28;4872532;29;4219;-62
2022/02/22 11:20:34;;;;;;;;;;;;;;;22.80;40.91;100862.63;4873277;29;4407;-63
2022/02/22 11:23:01;;;;;;;;;;;;;;;22.78;40.96;100862.53;4870151;29;4277;-64
2022/02/22 11:25:29;;;;;;;;;;;;;;;22.78;40.91;100866.16;4872047;29;4200;-64
2022/02/22 11:28:14;;;;;;;;;;;;;;;22.78;40.73;100874.81;4871533;29;5131;-62
2022/02/22 11:30:41;;;;;;;;;;;;;;;22.76;40.93;100865.34;4870917;29;4176;-65
2022/02/22 11:33:12;;;;;;;;;;;;;;;22.76;40.82;100876.88;4867254;29;4613;-61
2022/02/22 11:35:57;;;;;;;;;;;;;;;22.81;40.83;100890.06;4872632;29;4067;-60
2022/02/22 11:38:37;;;;;;;;;;;;;;;22.86;41.03;100893.84;4870313;29;4308;-62
2022/02/22 11:41:24;;;;;;;;;;;;;;;22.86;40.98;100899.63;4871387;29;5486;-62
2022/02/22 11:43:51;;;;;;;;;;;;;;;22.84;40.89;100894.53;4868562;29;4278;-61
2022/02/22 11:46:18;;;;;;;;;;;;;;;22.84;40.93;100900.28;4869936;29;4136;-62
2022/02/22 11:48:44;;;;;;;;;;;;;;;22.85;40.89;100901.75;4870671;29;4283;-63
2022/02/22 11:51:11;;;;;;;;;;;;;;;22.87;40.73;100898.97;4863795;29;4269;-62
2022/02/22 11:53:40;;;;;;;;;;;;;;;22.85;40.83;100901.75;4863195;29;4546;-61
2022/02/22 11:56:07;;;;;;;;;;;;;;;22.84;40.86;100897.41;4864406;29;4100;-66
2022/02/22 11:58:34;;;;;;;;;;;;;;;22.78;41.00;100911.63;4870259;29;5296;-64
2022/02/22 12:01:06;;;;;;;;;;;;;;;22.75;40.66;100922.34;4870619;29;5526;-63
2022/02/22 12:03:42;;;;;;;;;;;;;;;22.71;40.67;100918.56;4868422;29;4226;-62
2022/02/22 12:06:09;;;;;;;;;;;;;;;22.72;40.60;100917.16;4873685;29;4304;-63
2022/02/22 12:08:40;;;;;;;;;;;;;;;22.73;40.46;100930.19;4871935;29;4360;-64
2022/02/22 12:11:08;;;;;;;;;;;;;;;22.72;40.64;100922.91;4870286;29;4202;-64
2022/02/22 12:13:44;;;;;;;;;;;;;;;22.72;40.96;100940.25;4863300;29;5438;-63
2022/02/22 12:16:14;;;;;;;;;;;;;;;22.66;40.93;100940.03;4870463;29;4294;-65
2022/02/22 12:18:44;;;;;;;;;;;;;;;22.62;40.83;100931.22;4872823;29;4191;-64
2022/02/22 12:21:10;;;;;;;;;;;;;;;22.63;41.14;100926.91;4869077;29;5260;-63
2022/02/22 12:23:37;;;;;;;;;;;;;;;22.70;40.58;100928.63;4871211;29;6397;-64
2022/02/22 12:26:04;;;;;;;;;;;;;;;22.77;40.83;100930.34;4873596;29;4417;-62
2022/02/22 12:28:30;;;;;;;;;;;;;;;22.80;40.89;100923.25;4872847;29;4612;-63
2022/02/22 12:30:57;;;;;;;;;;;;;;;22.84;41.15;100922.63;4873834;29;5517;-62
2022/02/22 12:33:34;;;;;;;;;;;;;;;22.82;40.74;100922.59;4872659;29;5557;-64
2022/02/22 12:36:11;;;;;;;;;;;;;;;22.75;40.87;100924.50;4873040;29;4193;-63
2022/02/22 12:38:37;;;;;;;;;;;;;;;22.72;41.19;100917.91;4872718;29;4260;-61
2022/02/22 12:41:10;;;;;;;;;;;;;;;22.72;41.45;100925.81;4875473;29;4240;-62
2022/02/22 12:43:43;;;;;;;;;;;;;;;22.73;41.16;100924.41;4866018;29;5395;-65
2022/02/22 12:46:09;;;;;;;;;;;;;;;22.49;40.99;100924.22;4869336;29;4262;-64
2022/02/22 12:48:38;;;;;;;;;;;;;;;22.36;41.32;100928.78;4869818;29;4259;-68